createdAt,value
2022-07-27T00:01:18.997Z,95.30
2022-07-27T00:02:41.293Z,95.20
2022-07-27T00:04:03.767Z,95.20
2022-07-27T00:05:26.269Z,95.20
2022-07-27T00:06:48.763Z,95.30
2022-07-27T00:08:11.013Z,95.30
2022-07-27T00:09:33.132Z,95.20
2022-07-27T00:10:55.509Z,95.10
2022-07-27T00:12:18.065Z,95.20
2022-07-27T00:13:40.866Z,95.30
2022-07-27T00:15:03.813Z,95.30
2022-07-27T00:16:26.041Z,95.30
2022-07-27T00:17:48.315Z,95.40
2022-07-27T00:19:10.678Z,95.40
2022-07-27T00:20:33.027Z,95.40
2022-07-27T00:21:55.282Z,95.40
2022-07-27T00:23:17.505Z,95.40
2022-07-27T00:24:39.633Z,95.40
2022-07-27T00:26:02.235Z,95.30
2022-07-27T00:27:24.332Z,95.30
2022-07-27T00:28:46.510Z,95.30
2022-07-27T00:30:08.967Z,95.20
2022-07-27T00:31:31.257Z,95.20
2022-07-27T00:32:53.715Z,95.10
2022-07-27T00:34:15.855Z,95.20
2022-07-27T00:35:38.504Z,95.20
2022-07-27T00:37:01.112Z,95.30
2022-07-27T00:38:23.338Z,95.40
2022-07-27T00:39:45.870Z,95.40
2022-07-27T00:41:08.226Z,95.40
2022-07-27T00:42:31.288Z,95.50
2022-07-27T00:43:58.698Z,95.50
2022-07-27T00:45:20.945Z,95.40
2022-07-27T00:46:43.232Z,95.40
2022-07-27T00:48:05.916Z,95.40
2022-07-27T00:49:28.963Z,95.50
2022-07-27T00:50:51.741Z,95.50
2022-07-27T00:52:14.910Z,95.60
2022-07-27T00:53:37.295Z,95.70
2022-07-27T00:55:00.187Z,95.70
2022-07-27T00:56:22.970Z,95.80
2022-07-27T00:57:58.139Z,95.90
2022-07-27T00:59:22.032Z,96.10
2022-07-27T01:00:45.488Z,96.10
2022-07-27T01:02:11.866Z,96.20
2022-07-27T01:03:34.373Z,96.20
2022-07-27T01:04:57.499Z,96.30
2022-07-27T01:06:23.328Z,96.40
2022-07-27T01:07:50.069Z,96.40
2022-07-27T01:09:30.864Z,96.40
2022-07-27T01:10:57.286Z,96.50
2022-07-27T01:12:21.142Z,96.70
2022-07-27T01:13:43.631Z,96.70
2022-07-27T01:15:06.196Z,96.70
2022-07-27T01:16:28.566Z,96.80
2022-07-27T01:17:50.655Z,96.90
2022-07-27T01:19:15.086Z,97.10
2022-07-27T01:20:37.568Z,97.10
2022-07-27T01:21:59.788Z,97.20
2022-07-27T01:23:23.915Z,97.50
2022-07-27T01:24:46.148Z,97.60
2022-07-27T01:26:08.478Z,97.70
2022-07-27T01:27:30.655Z,98.00
2022-07-27T01:28:59.978Z,98.10
2022-07-27T01:30:28.548Z,97.80
2022-07-27T01:31:50.809Z,97.80
2022-07-27T01:33:13.478Z,97.80
2022-07-27T01:34:35.976Z,97.80
2022-07-27T01:35:58.219Z,97.80
2022-07-27T01:37:20.430Z,97.80
2022-07-27T01:38:43.006Z,97.80
2022-07-27T01:40:05.708Z,97.80
2022-07-27T01:41:27.843Z,97.70
2022-07-27T01:42:50.207Z,97.90
2022-07-27T01:44:12.645Z,97.60
2022-07-27T01:45:34.995Z,97.70
2022-07-27T01:46:57.131Z,97.70
2022-07-27T01:48:19.331Z,97.70
2022-07-27T01:49:41.549Z,97.90
2022-07-27T01:51:03.666Z,97.90
2022-07-27T01:52:25.793Z,98.00
2022-07-27T01:53:47.935Z,98.10
2022-07-27T01:55:11.496Z,98.20
2022-07-27T01:56:33.990Z,98.30
2022-07-27T01:57:56.087Z,98.30
2022-07-27T01:59:19.749Z,98.30
2022-07-27T02:00:42.346Z,98.30
2022-07-27T02:02:04.529Z,98.30
2022-07-27T02:03:26.807Z,98.30
2022-07-27T02:04:49.053Z,98.20
2022-07-27T02:06:11.182Z,98.30
2022-07-27T02:07:33.435Z,98.30
2022-07-27T02:08:55.495Z,98.50
2022-07-27T02:10:17.778Z,98.90
2022-07-27T02:11:58.535Z,99.20
2022-07-27T02:13:22.684Z,99.80
2022-07-27T02:14:45.106Z,99.90
2022-07-27T02:16:16.477Z,99.90
2022-07-27T02:17:40.309Z,99.90
2022-07-27T02:19:08.150Z,99.90
2022-07-27T02:20:31.873Z,99.90
2022-07-27T02:21:54.542Z,99.90
2022-07-27T02:23:16.816Z,99.90
2022-07-27T02:24:39.197Z,99.90
2022-07-27T02:26:01.703Z,99.90
2022-07-27T02:27:24.045Z,99.90
2022-07-27T02:28:46.188Z,99.90
2022-07-27T02:30:09.888Z,99.90
2022-07-27T02:31:32.980Z,99.90
2022-07-27T02:32:55.336Z,99.90
2022-07-27T02:34:17.505Z,99.90
2022-07-27T02:35:39.862Z,99.90
2022-07-27T02:37:02.003Z,99.90
2022-07-27T02:38:24.186Z,99.90
2022-07-27T02:39:46.425Z,99.90
2022-07-27T02:41:08.493Z,99.90
2022-07-27T02:42:30.556Z,99.90
2022-07-27T02:43:52.679Z,99.90
2022-07-27T02:45:15.325Z,99.90
2022-07-27T02:46:37.486Z,99.90
2022-07-27T02:47:59.619Z,99.90
2022-07-27T02:49:21.855Z,99.90
2022-07-27T02:50:44.060Z,99.90
2022-07-27T02:52:06.648Z,99.90
2022-07-27T02:53:30.152Z,99.90
2022-07-27T02:54:52.449Z,99.90
2022-07-27T02:56:14.885Z,99.90
2022-07-27T02:57:40.877Z,99.90
2022-07-27T02:59:03.125Z,99.90
2022-07-27T03:00:25.506Z,99.90
2022-07-27T03:01:48.830Z,99.90
2022-07-27T03:03:11.000Z,99.90
2022-07-27T03:04:33.190Z,99.90
2022-07-27T03:05:55.425Z,99.90
2022-07-27T03:07:17.940Z,99.90
2022-07-27T03:08:40.517Z,99.90
2022-07-27T03:10:02.773Z,99.90
2022-07-27T03:11:24.905Z,99.90
2022-07-27T03:12:47.050Z,99.90
2022-07-27T03:14:09.146Z,99.90
2022-07-27T03:15:33.591Z,99.90
2022-07-27T03:16:56.007Z,99.90
2022-07-27T03:18:18.272Z,99.90
2022-07-27T03:19:40.573Z,99.90
2022-07-27T03:21:03.801Z,99.90
2022-07-27T03:22:26.042Z,99.90
2022-07-27T03:23:48.181Z,99.90
2022-07-27T03:25:10.571Z,99.90
2022-07-27T03:26:33.354Z,99.90
2022-07-27T03:27:58.227Z,99.90
2022-07-27T03:29:22.754Z,99.90
2022-07-27T03:30:45.037Z,99.90
2022-07-27T03:32:07.432Z,99.90
2022-07-27T03:33:29.845Z,99.90
2022-07-27T03:34:52.209Z,99.90
2022-07-27T03:36:14.497Z,99.90
2022-07-27T03:37:36.722Z,99.90
2022-07-27T03:39:02.970Z,99.90
2022-07-27T03:40:29.681Z,99.90
2022-07-27T03:41:51.952Z,99.90
2022-07-27T03:43:14.248Z,99.90
2022-07-27T03:44:36.322Z,99.90
2022-07-27T03:45:58.538Z,99.90
2022-07-27T03:47:20.819Z,99.90
2022-07-27T03:48:43.041Z,99.90
2022-07-27T03:50:05.700Z,99.90
2022-07-27T03:51:27.820Z,99.90
2022-07-27T03:52:50.626Z,99.90
2022-07-27T03:54:12.931Z,99.90
2022-07-27T03:55:35.112Z,99.90
2022-07-27T03:56:57.310Z,99.90
2022-07-27T03:58:23.154Z,99.90
2022-07-27T03:59:45.222Z,99.90
2022-07-27T04:01:07.480Z,99.90
2022-07-27T04:02:30.261Z,99.90
2022-07-27T04:03:52.851Z,99.90
2022-07-27T04:05:15.185Z,99.90
2022-07-27T04:06:37.369Z,99.90
2022-07-27T04:08:00.841Z,99.90
2022-07-27T04:09:23.205Z,99.90
2022-07-27T04:10:48.121Z,99.90
2022-07-27T04:12:10.518Z,99.90
2022-07-27T04:13:32.747Z,99.90
2022-07-27T04:14:58.499Z,99.90
2022-07-27T04:16:20.925Z,99.90
2022-07-27T04:17:54.703Z,99.90
2022-07-27T04:19:19.361Z,99.90
2022-07-27T04:20:41.640Z,99.90
2022-07-27T04:22:04.173Z,99.90
2022-07-27T04:23:26.293Z,99.90
2022-07-27T04:24:48.522Z,99.90
2022-07-27T04:26:10.754Z,99.90
2022-07-27T04:27:33.246Z,99.90
2022-07-27T04:28:55.407Z,99.90
2022-07-27T04:30:17.544Z,99.90
2022-07-27T04:31:39.679Z,99.90
2022-07-27T04:33:01.837Z,99.90
2022-07-27T04:34:26.474Z,99.90
2022-07-27T04:35:48.694Z,99.90
2022-07-27T04:37:10.887Z,99.90
2022-07-27T04:38:32.961Z,99.90
2022-07-27T04:39:58.346Z,99.90
2022-07-27T04:41:20.470Z,99.90
2022-07-27T04:42:49.256Z,99.90
2022-07-27T04:44:12.043Z,99.90
2022-07-27T04:45:34.547Z,99.90
2022-07-27T04:46:56.702Z,99.90
2022-07-27T04:48:18.826Z,99.90
2022-07-27T04:49:40.913Z,99.90
2022-07-27T04:51:03.415Z,99.90
2022-07-27T04:52:26.719Z,99.90
2022-07-27T04:53:52.735Z,99.90
2022-07-27T04:55:21.652Z,99.90
2022-07-27T04:56:44.022Z,99.90
2022-07-27T04:58:06.280Z,99.90
2022-07-27T04:59:28.897Z,99.90
2022-07-27T05:00:51.273Z,99.90
2022-07-27T05:02:13.588Z,99.90
2022-07-27T05:03:35.722Z,99.90
2022-07-27T05:04:59.749Z,99.90
2022-07-27T05:06:21.955Z,99.90
2022-07-27T05:07:44.083Z,99.90
2022-07-27T05:09:06.354Z,99.90
2022-07-27T05:10:28.611Z,99.90
2022-07-27T05:11:52.159Z,98.10
2022-07-27T05:13:14.964Z,95.60
2022-07-27T05:14:37.006Z,93.40
2022-07-27T05:15:59.105Z,91.30
2022-07-27T05:17:21.260Z,90.40
2022-07-27T05:18:46.095Z,90.20
2022-07-27T05:20:09.017Z,90.10
2022-07-27T05:21:31.122Z,90.50
2022-07-27T05:22:53.244Z,91.00
2022-07-27T05:24:15.419Z,91.50
2022-07-27T05:25:39.694Z,92.00
2022-07-27T05:27:01.745Z,92.40
2022-07-27T05:28:23.866Z,92.90
2022-07-27T05:29:46.456Z,93.60
2022-07-27T05:31:08.649Z,94.20
2022-07-27T05:32:30.697Z,94.70
2022-07-27T05:33:57.917Z,95.20
2022-07-27T05:35:21.593Z,95.70
2022-07-27T05:36:43.818Z,96.00
2022-07-27T05:38:05.945Z,96.10
2022-07-27T05:39:28.204Z,96.40
2022-07-27T05:40:50.378Z,96.70
2022-07-27T05:42:12.438Z,96.80
2022-07-27T05:43:34.656Z,97.10
2022-07-27T05:44:56.779Z,97.40
2022-07-27T05:46:19.073Z,97.70
2022-07-27T05:47:41.293Z,97.80
2022-07-27T05:49:03.963Z,97.90
2022-07-27T05:50:26.124Z,98.00
2022-07-27T05:51:48.389Z,98.10
2022-07-27T05:53:10.543Z,98.20
2022-07-27T05:54:32.642Z,98.20
2022-07-27T05:55:58.780Z,98.20
2022-07-27T05:57:21.805Z,98.10
2022-07-27T05:58:43.955Z,98.20
2022-07-27T06:00:07.028Z,98.50
2022-07-27T06:01:29.190Z,98.40
2022-07-27T06:02:51.811Z,98.40
2022-07-27T06:04:14.645Z,98.20
2022-07-27T06:05:37.135Z,98.30
2022-07-27T06:07:17.816Z,98.30
2022-07-27T06:08:39.991Z,98.30
2022-07-27T06:10:02.121Z,98.10
2022-07-27T06:11:24.208Z,97.80
2022-07-27T06:12:46.883Z,97.50
2022-07-27T06:14:09.447Z,97.00
2022-07-27T06:15:31.872Z,96.50
2022-07-27T06:16:54.654Z,95.90
2022-07-27T06:18:18.560Z,95.60
2022-07-27T06:19:41.822Z,95.00
2022-07-27T06:21:04.783Z,94.70
2022-07-27T06:22:26.894Z,94.80
2022-07-27T06:23:49.133Z,94.60
2022-07-27T06:25:11.501Z,94.30
2022-07-27T06:26:33.577Z,94.10
2022-07-27T06:27:55.645Z,94.10
2022-07-27T06:29:17.755Z,94.50
2022-07-27T06:30:42.524Z,94.70
2022-07-27T06:32:04.941Z,94.80
2022-07-27T06:33:30.819Z,95.20
2022-07-27T06:34:53.475Z,95.40
2022-07-27T06:36:15.638Z,95.70
2022-07-27T06:37:38.062Z,95.80
2022-07-27T06:39:00.191Z,96.10
2022-07-27T06:40:24.440Z,96.10
2022-07-27T06:41:48.951Z,96.20
2022-07-27T06:43:11.001Z,96.20
2022-07-27T06:44:33.192Z,96.30
2022-07-27T06:45:55.478Z,96.30
2022-07-27T06:47:17.635Z,96.50
2022-07-27T06:48:40.581Z,96.40
2022-07-27T06:50:03.542Z,96.30
2022-07-27T06:51:25.855Z,96.50
2022-07-27T06:52:49.805Z,96.60
2022-07-27T06:54:11.909Z,96.70
2022-07-27T06:55:34.180Z,96.60
2022-07-27T06:56:56.542Z,96.60
2022-07-27T06:58:19.149Z,96.70
2022-07-27T06:59:42.625Z,96.80
2022-07-27T07:01:05.415Z,96.70
2022-07-27T07:02:28.055Z,96.70
2022-07-27T07:03:50.317Z,96.40
2022-07-27T07:05:12.452Z,95.80
2022-07-27T07:06:34.635Z,95.70
2022-07-27T07:07:57.310Z,95.30
2022-07-27T07:09:19.785Z,95.40
2022-07-27T07:10:44.458Z,95.30
2022-07-27T07:12:07.454Z,95.20
2022-07-27T07:13:32.122Z,94.70
2022-07-27T07:14:56.273Z,94.60
2022-07-27T07:16:18.497Z,94.50
2022-07-27T07:17:40.894Z,94.60
2022-07-27T07:19:03.030Z,94.60
2022-07-27T07:20:25.365Z,94.90
2022-07-27T07:21:47.794Z,95.10
2022-07-27T07:23:13.058Z,95.20
2022-07-27T07:24:35.307Z,95.10
2022-07-27T07:25:57.394Z,95.00
2022-07-27T07:27:23.316Z,95.50
2022-07-27T07:28:45.638Z,95.50
2022-07-27T07:30:08.479Z,96.00
2022-07-27T07:31:30.689Z,96.30
2022-07-27T07:32:52.881Z,96.70
2022-07-27T07:34:15.103Z,96.40
2022-07-27T07:35:37.165Z,96.30
2022-07-27T07:37:20.248Z,96.40
2022-07-27T07:38:44.859Z,96.70
2022-07-27T07:40:40.017Z,96.40
2022-07-27T07:41:49.987Z,96.20
2022-07-27T07:43:15.627Z,95.90
2022-07-27T07:44:37.918Z,96.10
2022-07-27T07:46:00.083Z,95.80
2022-07-27T07:47:24.090Z,95.60
2022-07-27T07:48:46.221Z,95.50
2022-07-27T07:50:08.708Z,95.70
2022-07-27T07:51:32.148Z,95.70
2022-07-27T07:52:55.098Z,95.70
2022-07-27T07:54:17.392Z,95.20
2022-07-27T07:55:39.574Z,95.40
2022-07-27T07:57:01.856Z,95.60
2022-07-27T07:58:24.512Z,95.20
2022-07-27T07:59:46.679Z,95.20
2022-07-27T08:01:08.901Z,95.10
2022-07-27T08:02:31.079Z,95.10
2022-07-27T08:03:55.355Z,94.80
2022-07-27T08:05:18.294Z,94.60
2022-07-27T08:06:40.382Z,94.50
2022-07-27T08:08:02.488Z,94.40
2022-07-27T08:09:26.868Z,94.30
2022-07-27T08:10:49.213Z,94.20
2022-07-27T08:12:11.267Z,94.50
2022-07-27T08:13:33.664Z,94.50
2022-07-27T08:14:55.935Z,94.80
2022-07-27T08:16:18.674Z,94.70
2022-07-27T08:17:41.252Z,94.60
2022-07-27T08:19:03.529Z,94.60
2022-07-27T08:20:28.270Z,94.50
2022-07-27T08:21:50.557Z,94.50
2022-07-27T08:23:13.200Z,94.40
2022-07-27T08:24:35.517Z,94.40
2022-07-27T08:25:58.183Z,94.30
2022-07-27T08:27:20.315Z,94.10
2022-07-27T08:28:42.584Z,93.80
2022-07-27T08:30:07.133Z,93.40
2022-07-27T08:31:51.222Z,93.70
2022-07-27T08:33:12.538Z,93.80
2022-07-27T08:34:34.892Z,93.70
2022-07-27T08:35:57.487Z,93.30
2022-07-27T08:37:19.592Z,93.00
2022-07-27T08:38:41.775Z,93.20
2022-07-27T08:41:46.683Z,93.60
2022-07-27T08:43:10.279Z,93.70
2022-07-27T08:44:34.772Z,93.90
2022-07-27T08:45:59.344Z,94.00
2022-07-27T08:47:22.862Z,94.10
2022-07-27T08:48:45.315Z,94.30
2022-07-27T08:50:26.087Z,94.20
2022-07-27T08:51:49.048Z,94.30
2022-07-27T08:53:13.336Z,94.40
2022-07-27T08:54:37.997Z,94.40
2022-07-27T08:56:00.859Z,94.20
2022-07-27T08:57:23.025Z,94.40
2022-07-27T08:58:46.327Z,94.40
2022-07-27T09:00:09.338Z,94.60
2022-07-27T09:01:37.887Z,94.50
2022-07-27T09:03:00.960Z,94.10
2022-07-27T09:04:23.508Z,93.90
2022-07-27T09:05:47.964Z,93.80
2022-07-27T09:07:10.110Z,93.90
2022-07-27T09:08:33.874Z,94.00
2022-07-27T09:09:56.537Z,94.10
2022-07-27T09:11:20.016Z,95.60
2022-07-27T09:12:42.405Z,96.70
2022-07-27T09:14:07.297Z,97.00
2022-07-27T09:15:34.438Z,97.30
2022-07-27T09:17:46.478Z,97.60
2022-07-27T09:18:39.829Z,98.40
2022-07-27T09:20:06.245Z,98.50
2022-07-27T09:21:29.145Z,98.00
2022-07-27T09:22:56.326Z,97.30
2022-07-27T09:24:44.216Z,96.70
2022-07-27T09:26:38.055Z,96.60
2022-07-27T09:28:00.885Z,96.70
2022-07-27T09:29:34.360Z,96.10
2022-07-27T09:31:08.744Z,95.80
2022-07-27T09:32:31.170Z,95.70
2022-07-27T09:33:56.120Z,95.40
2022-07-27T09:35:21.264Z,95.40
2022-07-27T09:36:55.571Z,95.80
2022-07-27T09:38:19.439Z,95.70
2022-07-27T09:39:41.657Z,95.40
2022-07-27T09:41:06.136Z,95.50
2022-07-27T09:43:05.490Z,95.40
2022-07-27T09:45:54.690Z,94.10
2022-07-27T09:47:21.670Z,92.90
2022-07-27T09:48:44.003Z,92.70
2022-07-27T09:50:20.932Z,93.10
2022-07-27T09:52:03.031Z,92.90
2022-07-27T09:53:42.203Z,92.40
2022-07-27T09:55:07.388Z,92.30
2022-07-27T09:56:31.700Z,92.30
2022-07-27T09:57:56.485Z,92.10
2022-07-27T09:59:19.627Z,92.20
2022-07-27T10:00:59.755Z,91.80
2022-07-27T10:02:22.102Z,91.20
2022-07-27T10:03:45.874Z,91.20
2022-07-27T10:05:08.830Z,90.90
2022-07-27T10:06:38.920Z,91.00
2022-07-27T10:08:10.084Z,90.40
2022-07-27T10:09:33.373Z,90.50
2022-07-27T10:10:57.499Z,89.00
2022-07-27T10:12:19.571Z,87.90
2022-07-27T10:13:46.036Z,89.80
2022-07-27T10:15:09.329Z,90.00
2022-07-27T10:16:32.979Z,89.70
2022-07-27T10:18:06.832Z,90.00
2022-07-27T10:19:46.008Z,90.50
2022-07-27T10:21:09.758Z,90.50
2022-07-27T10:22:51.139Z,90.60
2022-07-27T10:24:37.275Z,90.70
2022-07-27T10:26:24.770Z,91.10
2022-07-27T10:27:49.406Z,91.30
2022-07-27T10:29:14.454Z,91.50
2022-07-27T10:30:37.333Z,91.90
2022-07-27T10:32:01.140Z,92.10
2022-07-27T10:33:43.902Z,92.30
2022-07-27T10:35:06.742Z,91.80
2022-07-27T10:36:30.745Z,91.70
2022-07-27T10:38:12.974Z,91.70
2022-07-27T10:39:38.246Z,92.10
2022-07-27T10:41:22.277Z,91.80
2022-07-27T10:42:52.033Z,90.90
2022-07-27T10:44:19.035Z,90.40
2022-07-27T10:46:01.886Z,89.70
2022-07-27T10:47:39.395Z,90.00
2022-07-27T10:49:18.097Z,90.50
2022-07-27T10:50:48.021Z,91.20
2022-07-27T10:52:40.187Z,91.30
2022-07-27T10:54:27.219Z,91.60
2022-07-27T10:55:52.270Z,91.40
2022-07-27T10:57:26.350Z,91.40
2022-07-27T10:58:50.295Z,91.40
2022-07-27T11:00:19.478Z,91.10
2022-07-27T11:01:59.123Z,91.00
2022-07-27T11:03:21.401Z,90.80
2022-07-27T11:04:52.122Z,90.70
2022-07-27T11:06:32.947Z,90.60
2022-07-27T11:11:26.247Z,90.30
2022-07-27T11:12:49.480Z,90.10
2022-07-27T11:14:12.182Z,90.10
2022-07-27T11:15:34.605Z,88.70
2022-07-27T11:17:12.331Z,88.50
2022-07-27T11:18:42.108Z,88.00
2022-07-27T11:20:04.814Z,88.20
2022-07-27T11:21:36.551Z,87.60
2022-07-27T11:23:49.895Z,88.00
2022-07-27T11:24:41.381Z,87.20
2022-07-27T11:26:03.679Z,86.80
2022-07-27T11:27:26.308Z,86.30
2022-07-27T11:28:49.515Z,86.00
2022-07-27T11:30:26.029Z,86.20
2022-07-27T11:31:56.498Z,85.00
2022-07-27T11:33:19.663Z,85.10
2022-07-27T11:34:41.838Z,84.10
2022-07-27T11:36:07.269Z,84.40
2022-07-27T11:37:29.479Z,84.60
2022-07-27T11:38:54.982Z,85.50
2022-07-27T11:40:48.217Z,85.10
2022-07-27T11:42:08.521Z,84.90
2022-07-27T11:43:41.492Z,85.30
2022-07-27T11:45:07.869Z,85.20
2022-07-27T11:46:33.033Z,84.20
2022-07-27T11:47:58.733Z,85.00
2022-07-27T11:49:30.305Z,85.00
2022-07-27T11:50:59.008Z,84.60
2022-07-27T11:52:21.141Z,84.90
2022-07-27T11:53:43.708Z,85.30
2022-07-27T11:55:07.053Z,86.30
2022-07-27T11:56:33.556Z,86.90
2022-07-27T11:58:04.380Z,86.50
2022-07-27T11:59:30.901Z,87.30
2022-07-27T12:00:53.042Z,88.00
2022-07-27T12:02:21.952Z,87.50
2022-07-27T12:03:47.076Z,87.90
2022-07-27T12:05:12.700Z,87.80
2022-07-27T12:06:36.367Z,88.00
2022-07-27T12:07:58.498Z,88.50
2022-07-27T12:09:22.788Z,89.10
2022-07-27T12:11:06.853Z,89.30
2022-07-27T12:12:30.414Z,89.60
2022-07-27T12:13:58.043Z,89.30
2022-07-27T12:15:44.591Z,88.00
2022-07-27T12:17:20.398Z,88.40
2022-07-27T12:18:43.651Z,86.20
2022-07-27T12:20:09.124Z,86.30
2022-07-27T12:21:31.886Z,86.60
2022-07-27T12:22:55.007Z,87.00
2022-07-27T12:24:17.153Z,86.10
2022-07-27T12:25:40.464Z,86.20
2022-07-27T12:27:06.805Z,86.50
2022-07-27T12:28:29.096Z,87.50
2022-07-27T12:29:59.606Z,86.70
2022-07-27T12:31:21.770Z,86.40
2022-07-27T12:32:45.149Z,87.40
2022-07-27T12:34:07.365Z,87.20
2022-07-27T12:35:38.785Z,87.00
2022-07-27T12:37:12.534Z,87.60
2022-07-27T12:38:46.166Z,87.70
2022-07-27T12:40:17.166Z,86.50
2022-07-27T12:41:40.039Z,86.30
2022-07-27T12:43:05.377Z,87.30
2022-07-27T12:44:33.444Z,87.50
2022-07-27T12:45:55.960Z,85.60
2022-07-27T12:47:40.067Z,85.10
2022-07-27T12:49:15.943Z,83.90
2022-07-27T12:50:40.450Z,83.50
2022-07-27T12:52:10.364Z,83.20
2022-07-27T12:53:33.843Z,83.80
2022-07-27T12:54:56.756Z,83.80
2022-07-27T12:56:27.462Z,84.50
2022-07-27T12:57:56.107Z,84.40
2022-07-27T12:59:23.343Z,84.30
2022-07-27T13:00:45.597Z,83.80
2022-07-27T13:02:07.815Z,84.00
2022-07-27T13:03:30.072Z,83.20
2022-07-27T13:04:52.257Z,84.00
2022-07-27T13:06:14.868Z,84.10
2022-07-27T13:07:38.221Z,84.50
2022-07-27T13:09:00.401Z,84.90
2022-07-27T13:10:22.776Z,85.70
2022-07-27T13:11:47.844Z,86.00
2022-07-27T13:13:10.497Z,86.70
2022-07-27T13:14:32.835Z,86.20
2022-07-27T13:15:54.962Z,86.30
2022-07-27T13:17:17.285Z,86.50
2022-07-27T13:18:39.409Z,86.10
2022-07-27T13:20:02.564Z,84.80
2022-07-27T13:21:24.803Z,85.70
2022-07-27T13:22:50.299Z,85.20
2022-07-27T13:24:12.601Z,84.60
2022-07-27T13:25:37.242Z,84.00
2022-07-27T13:27:03.281Z,83.90
2022-07-27T13:28:25.352Z,84.70
2022-07-27T13:29:47.619Z,84.20
2022-07-27T13:31:09.948Z,84.90
2022-07-27T13:32:32.254Z,84.90
2022-07-27T13:33:54.597Z,85.30
2022-07-27T13:35:17.130Z,84.70
2022-07-27T13:36:42.116Z,85.50
2022-07-27T13:38:04.243Z,85.50
2022-07-27T13:39:27.067Z,85.10
2022-07-27T13:40:49.228Z,84.10
2022-07-27T13:42:11.931Z,84.50
2022-07-27T13:43:34.102Z,83.80
2022-07-27T13:45:08.644Z,83.50
2022-07-27T13:46:32.758Z,84.40
2022-07-27T13:47:54.899Z,83.20
2022-07-27T13:49:17.968Z,82.50
2022-07-27T13:50:41.020Z,82.40
2022-07-27T13:52:03.273Z,83.60
2022-07-27T13:53:25.597Z,83.60
2022-07-27T13:54:47.683Z,83.80
2022-07-27T13:56:09.841Z,83.90
2022-07-27T13:57:32.011Z,83.20
2022-07-27T13:58:54.060Z,83.30
2022-07-27T14:00:17.341Z,84.20
2022-07-27T14:01:40.516Z,84.20
2022-07-27T14:03:03.396Z,84.90
2022-07-27T14:04:25.496Z,84.10
2022-07-27T14:05:49.561Z,83.80
2022-07-27T14:07:12.204Z,84.20
2022-07-27T14:08:34.310Z,85.10
2022-07-27T14:10:15.032Z,85.50
2022-07-27T14:11:37.481Z,86.00
2022-07-27T14:13:08.383Z,85.50
2022-07-27T14:14:30.873Z,84.50
2022-07-27T14:15:55.257Z,84.80
2022-07-27T14:17:17.807Z,85.40
2022-07-27T14:18:39.969Z,85.50
2022-07-27T14:20:02.110Z,85.30
2022-07-27T14:21:24.280Z,85.10
2022-07-27T14:22:46.555Z,84.60
2022-07-27T14:24:08.947Z,84.50
2022-07-27T14:25:31.702Z,84.90
2022-07-27T14:26:53.782Z,84.90
2022-07-27T14:28:16.202Z,85.40
2022-07-27T14:29:38.433Z,85.90
2022-07-27T14:31:01.341Z,84.70
2022-07-27T14:32:23.519Z,84.80
2022-07-27T14:33:46.889Z,83.90
2022-07-27T14:35:09.113Z,84.50
2022-07-27T14:36:31.176Z,83.20
2022-07-27T14:37:53.372Z,83.20
2022-07-27T14:39:15.995Z,82.70
2022-07-27T14:40:38.986Z,82.50
2022-07-27T14:42:01.386Z,83.20
2022-07-27T14:43:23.824Z,83.90
2022-07-27T14:44:45.962Z,84.30
2022-07-27T14:46:08.048Z,84.30
2022-07-27T14:47:30.109Z,84.60
2022-07-27T14:49:07.712Z,84.10
2022-07-27T14:50:29.921Z,84.30
2022-07-27T14:51:52.649Z,84.20
2022-07-27T14:53:14.797Z,85.00
2022-07-27T14:54:37.907Z,84.30
2022-07-27T14:56:00.098Z,84.10
2022-07-27T14:57:22.275Z,84.60
2022-07-27T14:58:44.466Z,84.20
2022-07-27T15:00:14.439Z,83.40
2022-07-27T15:01:37.470Z,84.10
2022-07-27T15:02:59.693Z,84.50
2022-07-27T15:04:21.947Z,83.50
2022-07-27T15:05:49.620Z,83.50
2022-07-27T15:07:13.546Z,83.50
2022-07-27T15:08:35.673Z,84.20
2022-07-27T15:09:57.847Z,83.70
2022-07-27T15:11:20.154Z,84.10
2022-07-27T15:12:42.283Z,84.50
2022-07-27T15:14:05.225Z,84.40
2022-07-27T15:15:27.561Z,84.90
2022-07-27T15:16:50.886Z,85.70
2022-07-27T15:18:13.010Z,85.70
2022-07-27T15:19:35.223Z,85.50
2022-07-27T15:20:57.787Z,85.00
2022-07-27T15:22:20.255Z,84.90
2022-07-27T15:23:46.597Z,83.80
2022-07-27T15:25:12.194Z,83.60
2022-07-27T15:26:35.254Z,84.10
2022-07-27T15:27:57.385Z,83.50
2022-07-27T15:29:19.537Z,84.10
2022-07-27T15:30:41.727Z,84.00
2022-07-27T15:32:04.491Z,84.00
2022-07-27T15:33:26.850Z,83.80
2022-07-27T15:34:48.979Z,83.80
2022-07-27T15:36:32.630Z,84.00
2022-07-27T15:37:54.674Z,84.20
2022-07-27T15:39:20.940Z,84.20
2022-07-27T15:40:43.189Z,83.90
2022-07-27T15:42:07.240Z,84.00
2022-07-27T15:43:29.513Z,84.60
2022-07-27T15:44:51.642Z,84.90
2022-07-27T15:46:14.849Z,85.40
2022-07-27T15:47:37.408Z,85.60
2022-07-27T15:49:02.690Z,85.60
2022-07-27T15:50:25.420Z,86.20
2022-07-27T15:51:48.112Z,85.50
2022-07-27T15:53:11.270Z,85.60
2022-07-27T15:54:38.219Z,86.60
2022-07-27T15:56:04.525Z,86.30
2022-07-27T15:57:26.625Z,86.00
2022-07-27T15:58:48.650Z,86.40
2022-07-27T16:00:12.317Z,86.70
2022-07-27T16:01:35.695Z,86.50
2022-07-27T16:02:58.116Z,86.10
2022-07-27T16:04:20.553Z,86.00
2022-07-27T16:05:44.457Z,86.00
2022-07-27T16:07:06.882Z,87.00
2022-07-27T16:08:31.034Z,87.30
2022-07-27T16:09:53.292Z,87.20
2022-07-27T16:11:15.615Z,87.10
2022-07-27T16:12:38.465Z,87.00
2022-07-27T16:14:00.828Z,87.30
2022-07-27T16:15:43.399Z,87.70
2022-07-27T16:17:05.638Z,87.80
2022-07-27T16:18:28.270Z,87.60
2022-07-27T16:19:50.466Z,87.90
2022-07-27T16:21:12.658Z,87.90
2022-07-27T16:22:37.912Z,88.20
2022-07-27T16:24:00.026Z,88.80
2022-07-27T16:25:30.644Z,88.80
2022-07-27T16:27:05.793Z,88.70
2022-07-27T16:28:28.094Z,89.00
2022-07-27T16:29:50.502Z,88.80
2022-07-27T16:31:15.021Z,88.90
2022-07-27T16:32:37.188Z,88.70
2022-07-27T16:33:59.948Z,88.10
2022-07-27T16:35:22.159Z,88.50
2022-07-27T16:36:44.364Z,88.60
2022-07-27T16:39:24.018Z,87.30
2022-07-27T16:40:46.114Z,87.90
2022-07-27T16:42:08.228Z,87.50
2022-07-27T16:43:37.591Z,87.20
2022-07-27T16:45:00.812Z,87.60
2022-07-27T16:46:23.116Z,87.00
2022-07-27T16:47:45.211Z,87.80
2022-07-27T16:49:07.339Z,87.40
2022-07-27T16:50:29.532Z,88.30
2022-07-27T16:51:51.585Z,88.20
2022-07-27T16:53:13.652Z,88.00
2022-07-27T16:54:39.591Z,87.90
2022-07-27T16:56:02.018Z,88.10
2022-07-27T16:57:24.209Z,87.40
2022-07-27T16:58:46.302Z,87.60
2022-07-27T17:00:10.140Z,87.80
2022-07-27T17:01:32.409Z,87.50
2022-07-27T17:02:54.948Z,87.20
2022-07-27T17:04:17.162Z,87.40
2022-07-27T17:05:39.277Z,87.50
2022-07-27T17:07:01.386Z,87.70
2022-07-27T17:08:26.076Z,87.90
2022-07-27T17:09:50.322Z,88.20
2022-07-27T17:11:12.741Z,88.80
2022-07-27T17:12:39.253Z,89.10
2022-07-27T17:14:02.766Z,89.20
2022-07-27T17:15:25.811Z,89.00
2022-07-27T17:16:52.002Z,89.10
2022-07-27T17:18:16.033Z,88.30
2022-07-27T17:19:38.140Z,88.10
2022-07-27T17:21:00.242Z,88.40
2022-07-27T17:22:22.396Z,87.90
2022-07-27T17:23:45.023Z,88.60
2022-07-27T17:25:07.544Z,88.60
2022-07-27T17:26:29.621Z,88.50
2022-07-27T17:27:52.064Z,88.20
2022-07-27T17:29:14.793Z,88.50
2022-07-27T17:30:38.495Z,88.30
2022-07-27T17:32:00.634Z,87.80
2022-07-27T17:33:22.654Z,88.00
2022-07-27T17:34:47.645Z,87.30
2022-07-27T17:36:14.961Z,87.20
2022-07-27T17:38:03.321Z,87.30
2022-07-27T17:39:19.644Z,87.70
2022-07-27T17:40:43.077Z,87.30
2022-07-27T17:42:05.839Z,87.70
2022-07-27T17:43:27.975Z,88.30
2022-07-27T17:44:50.151Z,88.40
2022-07-27T17:46:12.935Z,87.60
2022-07-27T17:47:35.327Z,88.30
2022-07-27T17:48:57.539Z,87.20
2022-07-27T17:50:19.683Z,87.10
2022-07-27T17:51:41.766Z,87.40
2022-07-27T17:53:03.903Z,86.70
2022-07-27T17:54:26.514Z,86.80
2022-07-27T17:55:48.692Z,86.20
2022-07-27T17:57:10.778Z,86.70
2022-07-27T17:58:32.851Z,86.10
2022-07-27T17:59:56.335Z,86.70
2022-07-27T18:01:31.855Z,87.00
2022-07-27T18:03:01.145Z,87.30
2022-07-27T18:04:23.368Z,87.00
2022-07-27T18:05:46.578Z,87.10
2022-07-27T18:07:08.640Z,86.80
2022-07-27T18:08:30.764Z,86.10
2022-07-27T18:09:52.871Z,85.70
2022-07-27T18:11:14.934Z,85.20
2022-07-27T18:12:37.021Z,84.40
2022-07-27T18:13:59.201Z,85.00
2022-07-27T18:15:39.979Z,85.20
2022-07-27T18:17:02.057Z,85.00